createdAt,value
2023-01-31T00:00:10.383Z,89.40
2023-01-31T00:01:10.370Z,89.44
2023-01-31T00:02:10.532Z,89.54
2023-01-31T00:03:10.359Z,89.54
2023-01-31T00:04:10.329Z,89.54
2023-01-31T00:05:10.355Z,89.65
2023-01-31T00:06:10.300Z,89.65
2023-01-31T00:07:10.316Z,89.65
2023-01-31T00:08:10.278Z,89.54
2023-01-31T00:09:10.270Z,89.54
2023-01-31T00:10:10.250Z,89.54
2023-01-31T00:11:10.255Z,89.44
2023-01-31T00:12:10.222Z,89.54
2023-01-31T00:13:10.231Z,89.54
2023-01-31T00:14:10.201Z,89.44
2023-01-31T00:15:10.191Z,89.40
2023-01-31T00:16:10.271Z,89.40
2023-01-31T00:17:10.160Z,89.40
2023-01-31T00:18:10.159Z,89.50
2023-01-31T00:19:10.139Z,89.61
2023-01-31T00:20:10.120Z,89.81
2023-01-31T00:21:10.110Z,89.81
2023-01-31T00:22:10.090Z,89.96
2023-01-31T00:23:10.100Z,90.06
2023-01-31T00:24:10.073Z,90.12
2023-01-31T00:25:10.062Z,90.17
2023-01-31T00:26:10.111Z,90.17
2023-01-31T00:27:10.030Z,90.17
2023-01-31T00:28:10.032Z,90.23
2023-01-31T00:29:10.008Z,90.27
2023-01-31T00:30:09.998Z,90.37
2023-01-31T00:31:10.113Z,90.33
2023-01-31T00:32:10.118Z,90.37
2023-01-31T00:33:09.969Z,90.48
2023-01-31T00:34:09.939Z,90.58
2023-01-31T00:35:09.927Z,90.69
2023-01-31T00:36:09.909Z,90.89
2023-01-31T00:37:09.907Z,91.10
2023-01-31T00:38:09.902Z,91.20
2023-01-31T00:39:09.869Z,91.41
2023-01-31T00:40:09.868Z,91.62
2023-01-31T00:41:09.855Z,91.83
2023-01-31T00:42:09.829Z,91.83
2023-01-31T00:43:09.860Z,91.93
2023-01-31T00:44:09.816Z,91.93
2023-01-31T00:45:09.788Z,92.03
2023-01-31T00:46:09.777Z,92.14
2023-01-31T00:47:09.777Z,92.14
2023-01-31T00:48:09.768Z,92.03
2023-01-31T00:49:09.747Z,92.03
2023-01-31T00:50:09.726Z,91.93
2023-01-31T00:51:09.719Z,92.03
2023-01-31T00:52:09.738Z,92.14
2023-01-31T00:53:09.707Z,92.14
2023-01-31T00:54:09.678Z,92.14
2023-01-31T00:55:09.690Z,92.03
2023-01-31T00:56:09.648Z,91.93
2023-01-31T00:57:09.647Z,91.83
2023-01-31T00:58:09.636Z,91.83
2023-01-31T00:59:09.619Z,91.83
2023-01-31T01:00:09.590Z,92.03
2023-01-31T01:01:09.657Z,92.03
2023-01-31T01:02:09.657Z,92.03
2023-01-31T01:03:09.577Z,92.03
2023-01-31T01:04:09.546Z,92.03
2023-01-31T01:05:09.537Z,91.76
2023-01-31T01:06:09.535Z,91.86
2023-01-31T01:07:09.509Z,92.18
2023-01-31T01:08:09.508Z,92.38
2023-01-31T01:09:09.478Z,92.38
2023-01-31T01:10:09.469Z,92.49
2023-01-31T01:11:09.456Z,92.69
2023-01-31T01:12:09.440Z,92.80
2023-01-31T01:13:09.431Z,92.59
2023-01-31T01:14:09.426Z,92.59
2023-01-31T01:15:09.404Z,92.59
2023-01-31T01:16:09.448Z,92.59
2023-01-31T01:17:09.377Z,92.69
2023-01-31T01:18:09.365Z,92.49
2023-01-31T01:19:09.369Z,92.59
2023-01-31T01:20:09.340Z,92.38
2023-01-31T01:21:09.369Z,92.24
2023-01-31T01:22:09.311Z,92.14
2023-01-31T01:23:09.305Z,92.07
2023-01-31T01:24:09.299Z,91.97
2023-01-31T01:25:09.283Z,91.83
2023-01-31T01:26:09.257Z,91.83
2023-01-31T01:27:09.238Z,91.97
2023-01-31T01:28:09.227Z,91.97
2023-01-31T01:29:09.237Z,92.07
2023-01-31T01:30:09.206Z,92.28
2023-01-31T01:31:09.278Z,92.49
2023-01-31T01:32:09.229Z,92.59
2023-01-31T01:33:09.156Z,92.80
2023-01-31T01:34:09.167Z,92.90
2023-01-31T01:35:09.135Z,92.90
2023-01-31T01:36:09.127Z,92.80
2023-01-31T01:49:09.832Z,91.27
2023-01-31T01:49:53.682Z,91.06
2023-01-31T01:50:53.672Z,90.95
2023-01-31T01:51:53.670Z,90.75
2023-01-31T01:52:53.667Z,90.54
2023-01-31T01:53:53.660Z,90.58
2023-01-31T01:54:53.662Z,90.58
2023-01-31T01:55:53.612Z,90.69
2023-01-31T01:56:53.610Z,90.69
2023-01-31T01:57:53.582Z,90.89
2023-01-31T01:58:53.611Z,91.00
2023-01-31T01:59:53.561Z,91.10
2023-01-31T02:00:53.598Z,91.20
2023-01-31T02:01:53.580Z,91.41
2023-01-31T02:02:53.539Z,91.41
2023-01-31T02:03:53.527Z,91.52
2023-01-31T02:04:53.538Z,91.52
2023-01-31T02:05:53.638Z,91.55
2023-01-31T02:06:53.493Z,91.66
2023-01-31T02:07:53.454Z,91.66
2023-01-31T02:08:53.516Z,91.76
2023-01-31T02:09:53.484Z,91.86
2023-01-31T02:10:53.436Z,91.97
2023-01-31T02:11:53.414Z,92.18
2023-01-31T02:12:53.416Z,92.18
2023-01-31T02:13:53.408Z,92.18
2023-01-31T02:14:53.394Z,92.28
2023-01-31T02:15:53.368Z,92.28
2023-01-31T02:16:53.414Z,92.28
2023-01-31T02:17:53.336Z,92.38
2023-01-31T02:18:53.333Z,92.38
2023-01-31T02:19:53.335Z,92.32
2023-01-31T02:20:53.284Z,92.28
2023-01-31T02:21:53.285Z,92.32
2023-01-31T02:22:53.274Z,92.38
2023-01-31T02:23:53.250Z,92.38
2023-01-31T02:24:53.278Z,92.38
2023-01-31T02:25:53.243Z,92.38
2023-01-31T02:26:53.224Z,92.38
2023-01-31T02:27:53.206Z,92.38
2023-01-31T02:28:53.220Z,92.43
2023-01-31T02:29:53.215Z,92.28
2023-01-31T02:30:53.242Z,91.97
2023-01-31T02:31:53.172Z,91.86
2023-01-31T02:32:53.180Z,91.76
2023-01-31T02:33:53.128Z,91.66
2023-01-31T02:34:53.155Z,91.45
2023-01-31T02:35:53.119Z,91.24
2023-01-31T02:36:53.093Z,91.14
2023-01-31T02:37:53.096Z,91.03
2023-01-31T02:38:53.076Z,91.18
2023-01-31T02:39:53.114Z,91.28
2023-01-31T02:40:53.043Z,91.24
2023-01-31T02:41:53.033Z,91.39
2023-01-31T02:42:53.022Z,91.39
2023-01-31T02:43:52.994Z,91.28
2023-01-31T02:44:53.006Z,91.28
2023-01-31T02:45:52.982Z,91.28
2023-01-31T02:46:52.963Z,91.18
2023-01-31T02:47:52.944Z,91.28
2023-01-31T02:48:52.941Z,91.28
2023-01-31T02:49:52.943Z,91.28
2023-01-31T02:50:52.903Z,91.39
2023-01-31T02:51:52.905Z,91.39
2023-01-31T02:52:52.914Z,91.39
2023-01-31T02:53:52.871Z,91.28
2023-01-31T02:54:52.869Z,91.39
2023-01-31T02:55:52.852Z,91.39
2023-01-31T02:56:52.823Z,91.39
2023-01-31T02:57:52.825Z,91.28
2023-01-31T02:58:52.802Z,91.28
2023-01-31T02:59:52.793Z,91.28
2023-01-31T03:00:52.805Z,91.28
2023-01-31T03:01:52.767Z,91.28
2023-01-31T03:02:52.771Z,91.39
2023-01-31T03:03:52.760Z,91.39
2023-01-31T03:04:52.726Z,91.43
2023-01-31T03:05:52.722Z,91.53
2023-01-31T03:06:52.699Z,91.60
2023-01-31T03:07:52.680Z,91.60
2023-01-31T03:08:52.673Z,91.53
2023-01-31T03:09:52.662Z,91.53
2023-01-31T03:10:52.682Z,91.49
2023-01-31T03:11:52.623Z,91.60
2023-01-31T03:12:52.621Z,91.60
2023-01-31T03:13:52.607Z,91.49
2023-01-31T03:14:52.614Z,91.39
2023-01-31T03:15:52.602Z,91.43
2023-01-31T03:16:52.627Z,91.39
2023-01-31T03:17:52.552Z,91.18
2023-01-31T03:18:52.532Z,91.08
2023-01-31T03:19:52.533Z,91.22
2023-01-31T03:20:52.523Z,91.33
2023-01-31T03:21:52.512Z,91.43
2023-01-31T03:22:52.485Z,91.43
2023-01-31T03:23:52.473Z,91.43
2023-01-31T03:24:52.459Z,91.33
2023-01-31T03:25:52.452Z,91.33
2023-01-31T03:26:52.525Z,91.22
2023-01-31T03:27:52.424Z,91.12
2023-01-31T03:28:52.402Z,91.02
2023-01-31T03:29:52.400Z,91.02
2023-01-31T03:30:52.421Z,91.12
2023-01-31T03:31:52.449Z,91.08
2023-01-31T03:32:52.352Z,90.97
2023-01-31T03:33:52.330Z,90.87
2023-01-31T03:34:52.339Z,90.77
2023-01-31T03:35:52.311Z,90.35
2023-01-31T03:36:52.329Z,90.25
2023-01-31T03:37:52.291Z,90.35
2023-01-31T03:38:52.271Z,90.45
2023-01-31T03:39:52.271Z,90.35
2023-01-31T03:40:52.249Z,90.35
2023-01-31T03:41:52.266Z,90.14
2023-01-31T03:42:52.211Z,90.04
2023-01-31T03:43:52.214Z,90.04
2023-01-31T03:44:52.190Z,89.83
2023-01-31T03:45:52.217Z,89.83
2023-01-31T03:46:52.192Z,89.83
2023-01-31T03:47:52.154Z,89.94
2023-01-31T03:48:52.142Z,89.94
2023-01-31T03:49:52.133Z,89.94
2023-01-31T03:50:52.117Z,89.62
2023-01-31T03:51:52.125Z,89.62
2023-01-31T03:52:52.088Z,89.52
2023-01-31T03:53:52.082Z,89.42
2023-01-31T03:54:52.061Z,89.52
2023-01-31T03:55:52.042Z,89.73
2023-01-31T03:56:52.041Z,89.94
2023-01-31T03:57:52.027Z,90.14
2023-01-31T03:58:52.001Z,90.25
2023-01-31T03:59:52.001Z,90.04
2023-01-31T04:00:51.979Z,89.83
2023-01-31T04:01:52.019Z,89.62
2023-01-31T04:02:51.970Z,89.52
2023-01-31T04:03:51.950Z,89.62
2023-01-31T04:04:51.939Z,89.83
2023-01-31T04:05:51.920Z,90.04
2023-01-31T04:06:51.932Z,89.94
2023-01-31T04:07:51.897Z,89.94
2023-01-31T04:08:51.883Z,89.52
2023-01-31T04:09:51.869Z,89.52
2023-01-31T04:10:51.862Z,89.52
2023-01-31T04:11:51.867Z,89.42
2023-01-31T04:12:51.828Z,89.27
2023-01-31T04:13:51.819Z,88.90
2023-01-31T04:14:51.812Z,88.54
2023-01-31T04:15:51.830Z,88.44
2023-01-31T04:16:51.794Z,88.23
2023-01-31T04:17:51.775Z,88.23
2023-01-31T04:18:51.750Z,88.23
2023-01-31T04:19:51.740Z,88.02
2023-01-31T04:20:51.726Z,87.71
2023-01-31T04:21:51.733Z,87.71
2023-01-31T04:22:51.693Z,87.71
2023-01-31T04:23:51.689Z,87.61
2023-01-31T04:24:51.674Z,87.51
2023-01-31T04:25:51.669Z,87.40
2023-01-31T04:26:51.701Z,87.19
2023-01-31T04:27:51.648Z,87.19
2023-01-31T04:28:51.628Z,87.09
2023-01-31T04:29:51.610Z,87.09
2023-01-31T04:30:51.620Z,86.88
2023-01-31T04:31:51.666Z,86.57
2023-01-31T04:32:51.579Z,86.57
2023-01-31T04:33:51.558Z,86.68
2023-01-31T04:34:51.547Z,86.78
2023-01-31T04:35:51.542Z,86.78
2023-01-31T04:36:51.541Z,86.72
2023-01-31T04:37:51.509Z,86.82
2023-01-31T04:38:51.488Z,86.93
2023-01-31T04:39:51.489Z,87.27
2023-01-31T04:40:51.474Z,87.69
2023-01-31T04:41:51.443Z,88.00
2023-01-31T04:42:51.464Z,88.35
2023-01-31T04:43:51.447Z,88.56
2023-01-31T04:44:51.409Z,88.77
2023-01-31T04:45:51.413Z,88.81
2023-01-31T04:46:51.431Z,89.02
2023-01-31T04:47:51.381Z,89.33
2023-01-31T04:48:51.358Z,89.64
2023-01-31T04:49:51.340Z,89.85
2023-01-31T04:50:51.339Z,90.00
2023-01-31T04:51:51.317Z,90.10
2023-01-31T04:52:51.318Z,90.20
2023-01-31T04:53:51.309Z,90.20
2023-01-31T04:54:51.280Z,90.31
2023-01-31T04:55:51.283Z,90.31
2023-01-31T04:56:51.255Z,90.41
2023-01-31T04:57:51.260Z,90.52
2023-01-31T04:58:51.228Z,90.52
2023-01-31T04:59:51.225Z,90.52
2023-01-31T05:00:51.260Z,90.56
2023-01-31T05:01:51.199Z,90.56
2023-01-31T05:02:51.236Z,90.56
2023-01-31T05:03:51.171Z,90.66
2023-01-31T05:04:51.147Z,90.77
2023-01-31T05:05:51.141Z,90.87
2023-01-31T05:06:51.127Z,91.08
2023-01-31T05:07:51.138Z,91.18
2023-01-31T05:08:51.096Z,91.28
2023-01-31T05:09:51.078Z,91.39
2023-01-31T05:10:51.095Z,91.50
2023-01-31T05:11:51.064Z,91.50
2023-01-31T05:12:51.072Z,91.50
2023-01-31T05:13:51.039Z,91.50
2023-01-31T05:14:51.018Z,91.39
2023-01-31T05:15:51.012Z,91.39
2023-01-31T05:16:51.012Z,91.39
2023-01-31T05:17:50.999Z,91.39
2023-01-31T05:18:50.981Z,91.39
2023-01-31T05:19:50.980Z,91.28
2023-01-31T05:20:50.946Z,91.28
2023-01-31T05:21:50.928Z,91.28
2023-01-31T05:22:50.942Z,91.18
2023-01-31T05:23:50.914Z,91.18
2023-01-31T05:24:50.884Z,91.18
2023-01-31T05:25:50.934Z,91.18
2023-01-31T05:26:50.882Z,91.18
2023-01-31T05:27:50.866Z,91.28
2023-01-31T05:28:50.829Z,91.22
2023-01-31T05:29:50.825Z,91.33
2023-01-31T05:30:50.819Z,91.33
2023-01-31T05:31:50.865Z,91.33
2023-01-31T05:32:50.786Z,91.33
2023-01-31T05:33:50.766Z,91.33
2023-01-31T05:34:50.758Z,91.43
2023-01-31T05:35:50.745Z,91.43
2023-01-31T05:36:50.718Z,91.53
2023-01-31T05:37:50.716Z,91.58
2023-01-31T05:38:50.729Z,91.47
2023-01-31T05:39:50.711Z,91.58
2023-01-31T05:40:50.688Z,91.68
2023-01-31T05:41:50.673Z,91.78
2023-01-31T05:42:50.646Z,91.89
2023-01-31T05:43:50.655Z,92.03
2023-01-31T05:44:50.625Z,92.00
2023-01-31T05:45:50.632Z,92.03
2023-01-31T05:46:50.598Z,92.03
2023-01-31T05:47:50.586Z,92.14
2023-01-31T05:48:50.586Z,92.25
2023-01-31T05:49:50.591Z,92.25
2023-01-31T05:50:50.577Z,92.35
2023-01-31T05:51:50.538Z,92.31
2023-01-31T05:52:50.524Z,92.31
2023-01-31T05:53:50.547Z,92.21
2023-01-31T05:54:50.495Z,92.21
2023-01-31T05:55:50.495Z,92.10
2023-01-31T05:56:50.485Z,92.10
2023-01-31T05:57:50.578Z,99.99
2023-01-31T05:58:50.452Z,99.99
2023-01-31T05:59:50.446Z,99.99
2023-01-31T06:00:50.424Z,99.99
2023-01-31T06:01:50.428Z,99.99
2023-01-31T06:02:50.474Z,99.99
2023-01-31T06:03:50.400Z,96.23
2023-01-31T06:04:50.373Z,88.53
2023-01-31T06:05:50.360Z,80.49
2023-01-31T06:06:50.338Z,78.29
2023-01-31T06:07:50.333Z,78.19
2023-01-31T06:08:50.324Z,79.30
2023-01-31T06:09:50.312Z,80.62
2023-01-31T06:10:50.285Z,81.80
2023-01-31T06:11:50.280Z,82.98
2023-01-31T06:12:50.282Z,84.09
2023-01-31T06:13:50.253Z,85.13
2023-01-31T06:14:50.243Z,86.00
2023-01-31T06:15:50.373Z,86.77
2023-01-31T06:16:50.238Z,87.29
2023-01-31T06:17:50.183Z,87.65
2023-01-31T06:18:50.216Z,88.06
2023-01-31T06:19:50.186Z,88.62
2023-01-31T06:20:50.154Z,88.93
2023-01-31T06:21:50.163Z,89.25
2023-01-31T06:22:50.154Z,89.81
2023-01-31T06:23:50.155Z,90.22
2023-01-31T06:24:50.188Z,90.54
2023-01-31T06:25:50.095Z,90.75
2023-01-31T06:26:50.099Z,90.95
2023-01-31T06:27:50.069Z,91.02
2023-01-31T06:28:50.054Z,91.22
2023-01-31T06:29:50.064Z,91.22
2023-01-31T06:30:50.123Z,91.22
2023-01-31T06:31:50.069Z,91.22
2023-01-31T06:32:50.024Z,91.18
2023-01-31T06:33:49.996Z,91.08
2023-01-31T06:34:49.984Z,90.77
2023-01-31T06:35:49.962Z,90.66
2023-01-31T06:36:49.953Z,90.45
2023-01-31T06:37:49.949Z,90.25
2023-01-31T06:38:49.937Z,90.10
2023-01-31T06:39:49.931Z,90.00
2023-01-31T06:40:49.895Z,89.89
2023-01-31T06:41:49.960Z,89.79
2023-01-31T06:42:49.854Z,89.58
2023-01-31T06:43:49.851Z,89.37
2023-01-31T06:44:49.854Z,89.06
2023-01-31T06:45:49.903Z,89.06
2023-01-31T06:46:49.840Z,89.06
2023-01-31T06:47:49.824Z,89.17
2023-01-31T06:48:49.790Z,89.37
2023-01-31T06:49:49.804Z,89.27
2023-01-31T06:50:49.764Z,89.37
2023-01-31T06:51:49.766Z,89.48
2023-01-31T06:52:49.743Z,89.48
2023-01-31T06:53:49.735Z,89.58
2023-01-31T06:54:49.723Z,89.69
2023-01-31T06:55:49.704Z,89.79
2023-01-31T06:56:49.743Z,89.89
2023-01-31T06:57:49.689Z,89.89
2023-01-31T06:58:49.663Z,90.00
2023-01-31T06:59:49.693Z,90.10
2023-01-31T07:00:49.623Z,90.00
2023-01-31T07:01:49.666Z,89.89
2023-01-31T07:02:49.604Z,89.85
2023-01-31T07:03:49.603Z,89.54
2023-01-31T07:04:49.628Z,89.33
2023-01-31T07:05:49.575Z,88.92
2023-01-31T07:06:49.567Z,88.35
2023-01-31T07:07:49.555Z,88.04
2023-01-31T07:08:49.541Z,87.94
2023-01-31T07:09:49.542Z,87.73
2023-01-31T07:10:49.513Z,87.73
2023-01-31T07:11:49.518Z,87.63
2023-01-31T07:12:49.487Z,87.63
2023-01-31T07:13:49.473Z,87.59
2023-01-31T07:14:49.459Z,87.59
2023-01-31T07:15:49.470Z,87.59
2023-01-31T07:16:49.431Z,87.48
2023-01-31T07:17:49.434Z,87.48
2023-01-31T07:18:49.402Z,87.48
2023-01-31T07:19:49.563Z,87.48
2023-01-31T07:20:49.386Z,87.48
2023-01-31T07:21:49.403Z,87.59
2023-01-31T07:22:49.350Z,87.48
2023-01-31T07:23:49.334Z,87.27
2023-01-31T07:24:49.326Z,87.17
2023-01-31T07:25:49.331Z,87.17
2023-01-31T07:26:49.323Z,86.96
2023-01-31T07:27:49.292Z,86.86
2023-01-31T07:28:49.273Z,86.76
2023-01-31T07:29:49.321Z,86.65
2023-01-31T07:30:49.269Z,86.44
2023-01-31T07:31:49.241Z,86.44
2023-01-31T07:32:49.225Z,86.44
2023-01-31T07:33:49.249Z,86.34
2023-01-31T07:34:49.823Z,86.34
2023-01-31T07:35:49.676Z,86.44
2023-01-31T07:36:49.566Z,86.44
2023-01-31T07:37:49.764Z,86.51
2023-01-31T07:38:49.369Z,86.51
2023-01-31T07:39:50.555Z,86.41
2023-01-31T07:40:49.326Z,86.41
2023-01-31T07:41:49.110Z,86.55
2023-01-31T07:42:49.099Z,86.65
2023-01-31T07:43:49.135Z,86.86
2023-01-31T07:44:49.060Z,87.07
2023-01-31T07:45:49.085Z,87.27
2023-01-31T07:46:49.042Z,87.38
2023-01-31T07:47:49.494Z,87.27
2023-01-31T07:48:49.758Z,87.38
2023-01-31T07:49:49.623Z,87.59
2023-01-31T07:50:49.218Z,87.79
2023-01-31T07:51:49.193Z,87.69
2023-01-31T07:52:49.200Z,87.79
2023-01-31T07:53:49.186Z,88.00
2023-01-31T07:54:49.132Z,88.31
2023-01-31T07:55:48.930Z,88.52
2023-01-31T07:56:48.930Z,88.42
2023-01-31T07:57:48.920Z,88.46
2023-01-31T07:58:48.881Z,88.56
2023-01-31T07:59:48.874Z,88.77
2023-01-31T08:00:48.885Z,88.77
2023-01-31T08:01:50.713Z,88.77
2023-01-31T08:02:48.832Z,88.77
2023-01-31T08:03:48.811Z,88.87
2023-01-31T08:04:49.087Z,89.08
2023-01-31T08:05:48.795Z,89.39
2023-01-31T08:06:48.845Z,89.60
2023-01-31T08:07:48.770Z,89.70
2023-01-31T08:08:48.752Z,89.81
2023-01-31T08:09:48.740Z,89.81
2023-01-31T08:10:48.728Z,89.81
2023-01-31T08:11:48.744Z,89.70
2023-01-31T08:12:50.157Z,89.60
2023-01-31T08:13:48.691Z,89.60
2023-01-31T08:14:48.771Z,89.60
2023-01-31T08:15:48.883Z,89.60
2023-01-31T08:16:48.811Z,89.70
2023-01-31T08:17:48.633Z,89.81
2023-01-31T08:18:48.624Z,89.92
2023-01-31T08:19:48.599Z,89.92
2023-01-31T08:20:48.601Z,89.81
2023-01-31T08:21:48.606Z,89.81
2023-01-31T08:22:48.567Z,89.81
2023-01-31T08:23:48.539Z,89.92
2023-01-31T08:24:48.538Z,90.02
2023-01-31T08:25:48.529Z,90.12
2023-01-31T08:26:48.660Z,90.08
2023-01-31T08:27:48.507Z,90.08
2023-01-31T08:28:48.528Z,89.98
2023-01-31T08:29:48.476Z,89.87
2023-01-31T08:30:59.169Z,89.56
2023-01-31T08:31:51.976Z,89.15
2023-01-31T08:32:48.439Z,88.90
2023-01-31T08:33:48.440Z,88.69
2023-01-31T08:34:48.409Z,88.48
2023-01-31T08:35:48.389Z,88.38
2023-01-31T08:36:48.760Z,88.17
2023-01-31T08:37:48.373Z,88.02
2023-01-31T08:38:48.433Z,87.61
2023-01-31T08:39:48.335Z,87.40
2023-01-31T08:40:48.335Z,87.51
2023-01-31T08:41:48.318Z,87.40
2023-01-31T08:42:48.296Z,87.40
2023-01-31T08:43:57.871Z,87.51
2023-01-31T08:44:49.271Z,87.71
2023-01-31T08:45:48.271Z,87.82
2023-01-31T08:46:48.344Z,87.82
2023-01-31T08:47:48.269Z,87.71
2023-01-31T08:48:48.252Z,87.82
2023-01-31T08:49:48.211Z,87.82
2023-01-31T08:50:48.281Z,88.02
2023-01-31T08:51:48.194Z,88.23
2023-01-31T08:52:48.197Z,88.34
2023-01-31T08:53:48.180Z,88.34
2023-01-31T08:54:48.147Z,88.34
2023-01-31T08:55:48.126Z,88.44
2023-01-31T08:56:48.237Z,88.44
2023-01-31T08:57:58.488Z,88.13
2023-01-31T08:58:49.137Z,87.92
2023-01-31T08:59:48.088Z,87.57
2023-01-31T09:00:48.074Z,87.16
2023-01-31T09:01:48.109Z,86.64
2023-01-31T09:02:48.063Z,86.43
2023-01-31T09:03:48.025Z,86.33
2023-01-31T09:04:48.125Z,86.39
2023-01-31T09:05:47.993Z,86.08
2023-01-31T09:06:47.997Z,85.97
2023-01-31T09:07:47.965Z,85.77
2023-01-31T09:08:48.001Z,85.35
2023-01-31T09:09:47.955Z,85.04
2023-01-31T09:10:47.948Z,84.73
2023-01-31T09:11:47.938Z,84.42
2023-01-31T09:12:47.907Z,84.28
2023-01-31T09:13:47.897Z,84.17
2023-01-31T09:14:47.881Z,84.07
2023-01-31T09:15:47.856Z,84.00
2023-01-31T09:16:47.867Z,83.90
2023-01-31T09:17:47.861Z,84.07
2023-01-31T09:18:47.876Z,84.00
2023-01-31T09:19:47.820Z,84.11
2023-01-31T09:20:47.798Z,83.59
2023-01-31T09:21:47.825Z,83.80
2023-01-31T09:22:47.779Z,84.00
2023-01-31T09:23:47.758Z,84.00
2023-01-31T09:24:47.889Z,83.59
2023-01-31T09:25:48.304Z,83.59
2023-01-31T09:26:47.825Z,83.59
2023-01-31T09:27:47.726Z,83.38
2023-01-31T09:28:47.687Z,83.48
2023-01-31T09:29:47.678Z,83.59
2023-01-31T09:30:47.722Z,83.48
2023-01-31T09:31:47.750Z,83.48
2023-01-31T09:32:47.657Z,83.28
2023-01-31T09:33:47.625Z,83.17
2023-01-31T09:34:47.627Z,83.17
2023-01-31T09:35:47.616Z,83.48
2023-01-31T09:36:47.600Z,83.80
2023-01-31T09:37:47.597Z,83.59
2023-01-31T09:38:47.569Z,83.69
2023-01-31T09:39:47.719Z,83.90
2023-01-31T09:40:47.539Z,83.59
2023-01-31T09:41:47.525Z,83.59
2023-01-31T09:42:47.525Z,83.80
2023-01-31T09:43:47.488Z,83.55
2023-01-31T09:44:47.516Z,83.65
2023-01-31T09:45:47.479Z,83.90
2023-01-31T09:46:47.551Z,82.86
2023-01-31T09:47:47.456Z,82.86
2023-01-31T09:48:47.464Z,83.28
2023-01-31T09:49:47.456Z,83.59
2023-01-31T09:50:47.416Z,83.80
2023-01-31T09:51:47.395Z,83.38
2023-01-31T09:52:47.385Z,83.38
2023-01-31T09:53:47.448Z,83.48
2023-01-31T09:54:47.356Z,83.76
2023-01-31T09:55:47.414Z,83.86
2023-01-31T09:56:47.354Z,83.86
2023-01-31T09:57:47.325Z,83.76
2023-01-31T09:58:47.325Z,83.65
2023-01-31T09:59:47.293Z,83.86
2023-01-31T10:00:47.300Z,83.03
2023-01-31T10:01:47.268Z,83.14
2023-01-31T10:02:47.264Z,83.03
2023-01-31T10:03:47.273Z,83.03
2023-01-31T10:04:47.235Z,83.55
2023-01-31T10:05:47.204Z,83.03
2023-01-31T10:06:47.201Z,83.14
2023-01-31T10:07:47.176Z,83.03
2023-01-31T10:08:47.204Z,83.24
2023-01-31T10:09:47.166Z,82.82
2023-01-31T10:10:47.154Z,83.03
2023-01-31T10:11:47.126Z,83.14
2023-01-31T10:12:47.112Z,83.24
2023-01-31T10:13:47.106Z,83.34
2023-01-31T10:14:47.094Z,83.14
2023-01-31T10:15:47.073Z,82.82
2023-01-31T10:16:47.054Z,82.82
2023-01-31T10:17:47.099Z,83.03
2023-01-31T10:18:47.069Z,83.03
2023-01-31T10:19:47.023Z,83.24
2023-01-31T10:20:47.024Z,83.14
2023-01-31T10:21:46.992Z,83.34
2023-01-31T10:22:46.993Z,82.93
2023-01-31T10:23:46.994Z,82.82
2023-01-31T10:24:47.036Z,82.72
2023-01-31T10:25:46.945Z,82.41
2023-01-31T10:26:47.049Z,82.72
2023-01-31T10:27:46.937Z,82.82
2023-01-31T10:28:46.936Z,82.62
2023-01-31T10:29:46.897Z,83.03
2023-01-31T10:30:46.899Z,83.14
2023-01-31T10:31:47.007Z,83.20
2023-01-31T10:32:46.854Z,83.00
2023-01-31T10:33:46.854Z,83.00
2023-01-31T10:34:46.846Z,83.10
2023-01-31T10:35:46.812Z,82.89
2023-01-31T10:36:46.818Z,82.79
2023-01-31T10:37:46.857Z,82.48
2023-01-31T10:38:46.809Z,82.68
2023-01-31T10:39:46.773Z,82.27
2023-01-31T10:40:46.755Z,82.48
2023-01-31T10:41:46.737Z,82.68
2023-01-31T10:42:46.724Z,82.89
2023-01-31T10:43:46.723Z,82.48
2023-01-31T10:44:46.693Z,82.06
2023-01-31T10:45:46.745Z,82.37
2023-01-31T10:46:46.672Z,82.37
2023-01-31T10:47:46.661Z,82.58
2023-01-31T10:48:47.716Z,82.37
2023-01-31T10:49:46.653Z,82.68
2023-01-31T10:50:46.614Z,82.48
2023-01-31T10:51:46.635Z,82.89
2023-01-31T10:52:49.234Z,82.48
2023-01-31T10:53:46.606Z,82.79
2023-01-31T10:54:46.603Z,82.89
2023-01-31T10:55:46.582Z,82.58
2023-01-31T10:56:46.606Z,82.68
2023-01-31T10:57:46.515Z,82.89
2023-01-31T10:58:46.512Z,83.03
2023-01-31T10:59:46.521Z,83.00
2023-01-31T11:00:46.483Z,83.00
2023-01-31T11:01:46.492Z,83.10
2023-01-31T11:02:46.819Z,83.00
2023-01-31T11:03:46.443Z,83.10
2023-01-31T11:04:46.443Z,82.89
2023-01-31T11:05:46.428Z,83.00
2023-01-31T11:06:46.425Z,83.00
2023-01-31T11:07:46.413Z,83.00
2023-01-31T11:08:46.400Z,83.10
2023-01-31T11:09:46.382Z,83.00
2023-01-31T11:10:46.361Z,82.68
2023-01-31T11:11:46.335Z,82.89
2023-01-31T11:12:46.364Z,83.34
2023-01-31T11:13:46.340Z,83.34
2023-01-31T11:14:46.318Z,83.41
2023-01-31T11:15:46.293Z,83.31
2023-01-31T11:16:46.629Z,83.00
2023-01-31T11:17:46.296Z,82.93
2023-01-31T11:18:46.273Z,83.20
2023-01-31T11:19:46.340Z,83.14
2023-01-31T11:20:46.284Z,83.03
2023-01-31T11:21:46.203Z,83.03
2023-01-31T11:22:46.236Z,83.03
2023-01-31T11:23:46.189Z,83.03
2023-01-31T11:24:46.193Z,83.31
2023-01-31T11:25:46.153Z,83.34
2023-01-31T11:26:46.201Z,83.14
2023-01-31T11:27:46.132Z,82.62
2023-01-31T11:28:46.117Z,82.62
2023-01-31T11:29:46.124Z,82.51
2023-01-31T11:30:46.161Z,83.03
2023-01-31T11:31:46.125Z,83.24
2023-01-31T11:32:46.072Z,83.24
2023-01-31T11:33:46.069Z,83.03
2023-01-31T11:34:46.053Z,83.03
2023-01-31T11:35:46.087Z,83.24
2023-01-31T11:36:46.037Z,83.28
2023-01-31T11:37:46.049Z,83.38
2023-01-31T11:38:45.985Z,83.59
2023-01-31T11:39:45.978Z,83.69
2023-01-31T11:40:45.981Z,83.69
2023-01-31T11:41:45.947Z,83.59
2023-01-31T11:42:45.942Z,83.65
2023-01-31T11:43:45.931Z,83.86
2023-01-31T11:44:45.922Z,83.76
2023-01-31T11:45:45.974Z,83.45
2023-01-31T11:46:45.893Z,83.24
2023-01-31T11:47:45.875Z,83.55
2023-01-31T11:48:45.868Z,83.34
2023-01-31T11:49:45.861Z,83.34
2023-01-31T11:50:45.894Z,83.55
2023-01-31T11:51:45.815Z,83.45
2023-01-31T11:52:45.813Z,83.34
2023-01-31T11:53:45.804Z,83.55
2023-01-31T11:54:45.800Z,83.55
2023-01-31T11:55:45.784Z,83.55
2023-01-31T11:56:45.762Z,83.34
2023-01-31T11:57:45.753Z,83.24
2023-01-31T11:58:45.742Z,83.14
2023-01-31T11:59:45.714Z,83.14
2023-01-31T12:00:45.723Z,82.89
2023-01-31T12:01:45.683Z,83.14
2023-01-31T12:02:45.692Z,83.45
2023-01-31T12:04:00.875Z,82.89
2023-01-31T12:04:46.661Z,83.00
2023-01-31T12:05:45.651Z,83.14
2023-01-31T12:06:45.614Z,83.14
2023-01-31T12:07:45.639Z,83.03
2023-01-31T12:08:45.593Z,83.24
2023-01-31T12:09:45.637Z,83.24
2023-01-31T12:10:45.583Z,83.03
2023-01-31T12:11:45.565Z,83.03
2023-01-31T12:12:45.555Z,83.20
2023-01-31T12:13:45.543Z,83.20
2023-01-31T12:14:45.532Z,83.51
2023-01-31T12:15:45.532Z,83.51
2023-01-31T12:16:45.564Z,83.72
2023-01-31T12:17:45.488Z,83.47
2023-01-31T12:18:45.471Z,83.26
2023-01-31T12:19:45.462Z,83.26
2023-01-31T12:20:45.465Z,82.95
2023-01-31T12:21:45.431Z,82.75
2023-01-31T12:22:45.434Z,82.86
2023-01-31T12:23:46.576Z,83.16
2023-01-31T12:24:45.381Z,83.58
2023-01-31T12:25:45.401Z,83.26
2023-01-31T12:26:45.487Z,83.26
2023-01-31T12:27:45.351Z,83.06
2023-01-31T12:28:45.344Z,83.06
2023-01-31T12:29:45.341Z,84.78
2023-01-31T12:30:45.477Z,83.54
2023-01-31T12:31:45.400Z,82.60
2023-01-31T12:32:45.296Z,82.29
2023-01-31T12:33:45.265Z,82.29
2023-01-31T12:34:59.562Z,82.40
2023-01-31T12:35:46.263Z,82.09
2023-01-31T12:36:45.244Z,82.29
2023-01-31T12:37:45.233Z,82.29
2023-01-31T12:38:45.213Z,82.60
2023-01-31T12:39:45.200Z,83.02
2023-01-31T12:40:45.243Z,82.78
2023-01-31T12:41:45.179Z,82.40
2023-01-31T12:42:45.161Z,82.29
2023-01-31T12:43:45.159Z,82.50
2023-01-31T12:44:45.134Z,82.57
2023-01-31T12:45:45.121Z,82.67
2023-01-31T12:46:45.120Z,82.78
2023-01-31T12:47:45.094Z,82.57
2023-01-31T12:48:45.081Z,82.67
2023-01-31T12:49:45.090Z,82.67
2023-01-31T12:50:45.053Z,82.57
2023-01-31T12:51:45.057Z,82.46
2023-01-31T12:52:45.033Z,82.05
2023-01-31T12:53:52.251Z,82.15
2023-01-31T12:54:45.019Z,82.05
2023-01-31T12:55:44.977Z,82.05
2023-01-31T12:56:45.032Z,82.67
2023-01-31T12:57:45.024Z,82.36
2023-01-31T12:58:44.940Z,82.36
2023-01-31T12:59:44.952Z,82.26
2023-01-31T13:00:44.939Z,82.57
2023-01-31T13:01:45.037Z,82.88
2023-01-31T13:02:44.952Z,83.19
2023-01-31T13:03:44.908Z,82.98